sensor_id;sensor_type;location;lat;lon;timestamp;temperature;humidity
70321;DHT22;61127;55.826;37.046;2023-06-04T00:02:22;5.64;80.54
70321;DHT22;61127;55.826;37.046;2023-06-04T00:04:48;5.61;80.54
70321;DHT22;61127;55.826;37.046;2023-06-04T00:07:14;5.59;80.56
70321;DHT22;61127;55.826;37.046;2023-06-04T00:09:40;5.54;80.46
70321;DHT22;61127;55.826;37.046;2023-06-04T00:12:07;5.51;80.68
70321;DHT22;61127;55.826;37.046;2023-06-04T00:14:33;5.50;80.75
70321;DHT22;61127;55.826;37.046;2023-06-04T00:16:59;5.47;80.55
70321;DHT22;61127;55.826;37.046;2023-06-04T00:19:25;5.43;80.70
70321;DHT22;61127;55.826;37.046;2023-06-04T00:21:51;5.41;80.81
70321;DHT22;61127;55.826;37.046;2023-06-04T00:24:17;5.40;81.02
70321;DHT22;61127;55.826;37.046;2023-06-04T00:26:44;5.37;80.98
70321;DHT22;61127;55.826;37.046;2023-06-04T00:29:10;5.32;81.00
70321;DHT22;61127;55.826;37.046;2023-06-04T00:31:36;5.31;81.17
70321;DHT22;61127;55.826;37.046;2023-06-04T00:34:06;5.25;81.05
70321;DHT22;61127;55.826;37.046;2023-06-04T00:36:31;5.24;81.04
70321;DHT22;61127;55.826;37.046;2023-06-04T00:38:58;5.19;81.14
70321;DHT22;61127;55.826;37.046;2023-06-04T00:41:24;5.15;81.16
70321;DHT22;61127;55.826;37.046;2023-06-04T00:43:51;5.13;81.36
70321;DHT22;61127;55.826;37.046;2023-06-04T00:46:25;5.11;81.53
70321;DHT22;61127;55.826;37.046;2023-06-04T00:48:53;5.11;81.51
70321;DHT22;61127;55.826;37.046;2023-06-04T00:51:20;5.10;81.43
70321;DHT22;61127;55.826;37.046;2023-06-04T00:53:52;5.08;81.59
70321;DHT22;61127;55.826;37.046;2023-06-04T00:56:18;5.06;81.68
70321;DHT22;61127;55.826;37.046;2023-06-04T00:58:45;5.06;81.75
70321;DHT22;61127;55.826;37.046;2023-06-04T01:01:24;5.08;81.82
70321;DHT22;61127;55.826;37.046;2023-06-04T01:03:54;5.06;81.91
70321;DHT22;61127;55.826;37.046;2023-06-04T01:06:28;5.07;81.94
70321;DHT22;61127;55.826;37.046;2023-06-04T01:08:58;5.07;81.96
70321;DHT22;61127;55.826;37.046;2023-06-04T01:11:37;5.08;81.93
70321;DHT22;61127;55.826;37.046;2023-06-04T01:14:05;5.08;81.96
70321;DHT22;61127;55.826;37.046;2023-06-04T01:16:48;5.10;81.96
70321;DHT22;61127;55.826;37.046;2023-06-04T01:22:28;5.12;82.12
70321;DHT22;61127;55.826;37.046;2023-06-04T01:24:59;5.11;82.21
70321;DHT22;61127;55.826;37.046;2023-06-04T01:27:28;5.16;82.20
70321;DHT22;61127;55.826;37.046;2023-06-04T01:29:56;5.17;82.24
70321;DHT22;61127;55.826;37.046;2023-06-04T01:32:23;5.18;82.17
70321;DHT22;61127;55.826;37.046;2023-06-04T01:34:50;5.20;82.11
70321;DHT22;61127;55.826;37.046;2023-06-04T01:37:16;5.22;82.12
70321;DHT22;61127;55.826;37.046;2023-06-04T01:39:42;5.25;82.08
70321;DHT22;61127;55.826;37.046;2023-06-04T01:42:08;5.28;82.01
70321;DHT22;61127;55.826;37.046;2023-06-04T01:44:34;5.32;82.00
70321;DHT22;61127;55.826;37.046;2023-06-04T01:47:01;5.36;81.81
70321;DHT22;61127;55.826;37.046;2023-06-04T01:49:27;5.40;81.89
70321;DHT22;61127;55.826;37.046;2023-06-04T01:51:53;5.45;81.90
70321;DHT22;61127;55.826;37.046;2023-06-04T01:54:19;5.47;81.89
70321;DHT22;61127;55.826;37.046;2023-06-04T01:56:45;5.51;81.90
70321;DHT22;61127;55.826;37.046;2023-06-04T01:59:14;5.55;81.91
70321;DHT22;61127;55.826;37.046;2023-06-04T02:01:42;5.60;81.94
70321;DHT22;61127;55.826;37.046;2023-06-04T02:04:08;5.66;81.80
70321;DHT22;61127;55.826;37.046;2023-06-04T02:06:34;5.70;81.79
70321;DHT22;61127;55.826;37.046;2023-06-04T02:09:02;5.76;81.74
70321;DHT22;61127;55.826;37.046;2023-06-04T02:11:29;5.81;81.75
70321;DHT22;61127;55.826;37.046;2023-06-04T02:13:55;5.83;81.64
70321;DHT22;61127;55.826;37.046;2023-06-04T02:16:24;5.89;81.64
70321;DHT22;61127;55.826;37.046;2023-06-04T02:18:50;5.92;81.60
70321;DHT22;61127;55.826;37.046;2023-06-04T02:21:16;5.98;81.64
70321;DHT22;61127;55.826;37.046;2023-06-04T02:23:42;6.06;81.49
70321;DHT22;61127;55.826;37.046;2023-06-04T02:26:08;6.10;81.11
70321;DHT22;61127;55.826;37.046;2023-06-04T02:28:34;6.15;81.11
70321;DHT22;61127;55.826;37.046;2023-06-04T02:31:00;6.21;80.86
70321;DHT22;61127;55.826;37.046;2023-06-04T02:33:26;6.27;80.88
70321;DHT22;61127;55.826;37.046;2023-06-04T02:35:52;6.35;80.95
70321;DHT22;61127;55.826;37.046;2023-06-04T02:38:19;6.41;80.76
70321;DHT22;61127;55.826;37.046;2023-06-04T02:40:45;6.48;80.88
70321;DHT22;61127;55.826;37.046;2023-06-04T02:43:11;6.56;80.56
70321;DHT22;61127;55.826;37.046;2023-06-04T02:45:37;6.63;80.43
70321;DHT22;61127;55.826;37.046;2023-06-04T02:48:04;6.70;80.55
70321;DHT22;61127;55.826;37.046;2023-06-04T02:50:30;6.78;80.17
70321;DHT22;61127;55.826;37.046;2023-06-04T02:52:56;6.85;80.11
70321;DHT22;61127;55.826;37.046;2023-06-04T02:55:22;6.93;80.14
70321;DHT22;61127;55.826;37.046;2023-06-04T02:57:49;7.01;79.45
70321;DHT22;61127;55.826;37.046;2023-06-04T03:00:18;7.07;78.85
70321;DHT22;61127;55.826;37.046;2023-06-04T03:02:45;7.13;79.40
70321;DHT22;61127;55.826;37.046;2023-06-04T03:05:14;7.18;79.27
70321;DHT22;61127;55.826;37.046;2023-06-04T03:07:44;7.25;78.62
70321;DHT22;61127;55.826;37.046;2023-06-04T03:10:13;7.31;78.85
70321;DHT22;61127;55.826;37.046;2023-06-04T03:12:40;7.38;77.82
70321;DHT22;61127;55.826;37.046;2023-06-04T03:15:07;7.46;78.57
70321;DHT22;61127;55.826;37.046;2023-06-04T03:17:34;7.52;76.92
70321;DHT22;61127;55.826;37.046;2023-06-04T03:20:01;7.55;77.15
70321;DHT22;61127;55.826;37.046;2023-06-04T03:22:31;7.65;78.11
70321;DHT22;61127;55.826;37.046;2023-06-04T03:24:57;7.74;78.30
70321;DHT22;61127;55.826;37.046;2023-06-04T03:27:23;7.84;77.65
70321;DHT22;61127;55.826;37.046;2023-06-04T03:29:50;7.88;75.67
70321;DHT22;61127;55.826;37.046;2023-06-04T03:32:17;7.96;76.61
70321;DHT22;61127;55.826;37.046;2023-06-04T03:34:43;8.02;75.59
70321;DHT22;61127;55.826;37.046;2023-06-04T03:37:10;8.08;76.25
70321;DHT22;61127;55.826;37.046;2023-06-04T03:39:37;8.17;76.31
70321;DHT22;61127;55.826;37.046;2023-06-04T03:42:05;8.27;76.90
70321;DHT22;61127;55.826;37.046;2023-06-04T03:44:32;8.36;77.40
70321;DHT22;61127;55.826;37.046;2023-06-04T03:46:59;8.49;78.02
70321;DHT22;61127;55.826;37.046;2023-06-04T03:49:25;8.60;77.41
70321;DHT22;61127;55.826;37.046;2023-06-04T03:51:53;8.68;77.13
70321;DHT22;61127;55.826;37.046;2023-06-04T03:54:21;8.78;76.94
70321;DHT22;61127;55.826;37.046;2023-06-04T03:56:49;8.82;74.41
70321;DHT22;61127;55.826;37.046;2023-06-04T03:59:16;8.89;75.08
70321;DHT22;61127;55.826;37.046;2023-06-04T04:01:43;8.95;74.81
70321;DHT22;61127;55.826;37.046;2023-06-04T04:04:10;9.02;75.00
70321;DHT22;61127;55.826;37.046;2023-06-04T04:06:36;9.09;72.19
70321;DHT22;61127;55.826;37.046;2023-06-04T04:09:03;9.19;75.21
70321;DHT22;61127;55.826;37.046;2023-06-04T04:11:30;9.30;75.45
70321;DHT22;61127;55.826;37.046;2023-06-04T04:13:56;9.45;76.05
70321;DHT22;61127;55.826;37.046;2023-06-04T04:16:23;9.60;74.65
70321;DHT22;61127;55.826;37.046;2023-06-04T04:18:50;9.71;74.92
70321;DHT22;61127;55.826;37.046;2023-06-04T04:21:16;9.79;73.15
70321;DHT22;61127;55.826;37.046;2023-06-04T04:23:45;9.90;73.97
70321;DHT22;61127;55.826;37.046;2023-06-04T04:26:11;9.99;72.80
70321;DHT22;61127;55.826;37.046;2023-06-04T04:28:45;10.14;74.51
70321;DHT22;61127;55.826;37.046;2023-06-04T04:31:11;10.38;75.46
70321;DHT22;61127;55.826;37.046;2023-06-04T04:33:38;10.64;74.80
70321;DHT22;61127;55.826;37.046;2023-06-04T04:36:07;10.83;74.08
70321;DHT22;61127;55.826;37.046;2023-06-04T04:38:41;10.89;67.81
70321;DHT22;61127;55.826;37.046;2023-06-04T04:41:07;10.87;68.85
70321;DHT22;61127;55.826;37.046;2023-06-04T04:43:35;10.96;72.29
70321;DHT22;61127;55.826;37.046;2023-06-04T04:46:22;11.13;72.21
70321;DHT22;61127;55.826;37.046;2023-06-04T04:48:48;11.29;71.08
70321;DHT22;61127;55.826;37.046;2023-06-04T04:51:14;11.41;67.47
70321;DHT22;61127;55.826;37.046;2023-06-04T04:53:40;11.49;63.24
70321;DHT22;61127;55.826;37.046;2023-06-04T04:56:06;11.47;62.61
70321;DHT22;61127;55.826;37.046;2023-06-04T04:58:35;11.53;65.13
70321;DHT22;61127;55.826;37.046;2023-06-04T05:01:01;11.63;64.96
70321;DHT22;61127;55.826;37.046;2023-06-04T05:03:28;11.81;64.78
70321;DHT22;61127;55.826;37.046;2023-06-04T05:05:54;12.03;65.10
70321;DHT22;61127;55.826;37.046;2023-06-04T05:08:20;12.29;67.97
70321;DHT22;61127;55.826;37.046;2023-06-04T05:10:46;12.62;69.28
70321;DHT22;61127;55.826;37.046;2023-06-04T05:13:13;12.94;67.55
70321;DHT22;61127;55.826;37.046;2023-06-04T05:15:45;13.14;66.36
70321;DHT22;61127;55.826;37.046;2023-06-04T05:18:16;13.21;65.17
70321;DHT22;61127;55.826;37.046;2023-06-04T05:20:46;13.35;62.51
70321;DHT22;61127;55.826;37.046;2023-06-04T05:23:13;13.50;63.34
70321;DHT22;61127;55.826;37.046;2023-06-04T05:25:41;13.71;59.11
70321;DHT22;61127;55.826;37.046;2023-06-04T05:28:09;13.82;60.75
70321;DHT22;61127;55.826;37.046;2023-06-04T05:30:36;13.96;62.35
70321;DHT22;61127;55.826;37.046;2023-06-04T05:33:08;14.29;61.92
70321;DHT22;61127;55.826;37.046;2023-06-04T05:35:48;14.41;63.72
70321;DHT22;61127;55.826;37.046;2023-06-04T05:38:14;14.68;60.79
70321;DHT22;61127;55.826;37.046;2023-06-04T05:40:55;15.02;62.21
70321;DHT22;61127;55.826;37.046;2023-06-04T05:43:22;15.02;60.94
70321;DHT22;61127;55.826;37.046;2023-06-04T05:45:49;15.15;58.48
70321;DHT22;61127;55.826;37.046;2023-06-04T05:48:15;14.83;58.93
70321;DHT22;61127;55.826;37.046;2023-06-04T05:50:42;14.55;57.22
70321;DHT22;61127;55.826;37.046;2023-06-04T05:53:08;14.40;59.73
70321;DHT22;61127;55.826;37.046;2023-06-04T05:55:34;14.77;58.36
70321;DHT22;61127;55.826;37.046;2023-06-04T05:58:00;15.04;54.17
70321;DHT22;61127;55.826;37.046;2023-06-04T06:00:26;15.41;54.73
70321;DHT22;61127;55.826;37.046;2023-06-04T06:02:52;15.30;49.79
70321;DHT22;61127;55.826;37.046;2023-06-04T06:05:32;15.68;52.07
70321;DHT22;61127;55.826;37.046;2023-06-04T06:07:58;15.76;52.62
70321;DHT22;61127;55.826;37.046;2023-06-04T06:10:24;15.57;52.85
70321;DHT22;61127;55.826;37.046;2023-06-04T06:12:50;15.52;56.04
70321;DHT22;61127;55.826;37.046;2023-06-04T06:15:17;0.00;57.68
70321;DHT22;61127;55.826;37.046;2023-06-04T06:17:45;16.62;49.71
70321;DHT22;61127;55.826;37.046;2023-06-04T06:20:12;16.51;45.03
70321;DHT22;61127;55.826;37.046;2023-06-04T06:22:44;16.05;47.70
70321;DHT22;61127;55.826;37.046;2023-06-04T06:25:11;16.26;51.14
70321;DHT22;61127;55.826;37.046;2023-06-04T06:27:48;16.31;51.94
70321;DHT22;61127;55.826;37.046;2023-06-04T06:30:16;16.32;50.89
70321;DHT22;61127;55.826;37.046;2023-06-04T06:32:42;16.93;52.53
70321;DHT22;61127;55.826;37.046;2023-06-04T06:35:08;17.61;53.48
70321;DHT22;61127;55.826;37.046;2023-06-04T06:37:34;18.30;49.48
70321;DHT22;61127;55.826;37.046;2023-06-04T06:40:01;18.11;47.71
70321;DHT22;61127;55.826;37.046;2023-06-04T06:42:32;17.73;49.97
70321;DHT22;61127;55.826;37.046;2023-06-04T06:44:58;17.74;45.49
70321;DHT22;61127;55.826;37.046;2023-06-04T06:47:24;18.08;44.95
70321;DHT22;61127;55.826;37.046;2023-06-04T06:49:50;18.54;47.24
70321;DHT22;61127;55.826;37.046;2023-06-04T06:52:16;18.74;45.31
70321;DHT22;61127;55.826;37.046;2023-06-04T06:54:45;18.94;38.05
70321;DHT22;61127;55.826;37.046;2023-06-04T06:57:12;19.22;44.09
70321;DHT22;61127;55.826;37.046;2023-06-04T06:59:39;19.39;37.24
70321;DHT22;61127;55.826;37.046;2023-06-04T07:02:05;19.79;43.54
70321;DHT22;61127;55.826;37.046;2023-06-04T07:04:32;20.27;45.74
70321;DHT22;61127;55.826;37.046;2023-06-04T07:06:58;19.85;32.69
70321;DHT22;61127;55.826;37.046;2023-06-04T07:09:24;19.16;41.22
70321;DHT22;61127;55.826;37.046;2023-06-04T07:11:50;18.77;44.61
70321;DHT22;61127;55.826;37.046;2023-06-04T07:14:16;18.57;45.80
70321;DHT22;61127;55.826;37.046;2023-06-04T07:16:42;18.38;45.64
70321;DHT22;61127;55.826;37.046;2023-06-04T07:19:08;17.79;38.67
70321;DHT22;61127;55.826;37.046;2023-06-04T07:21:34;17.26;41.24
70321;DHT22;61127;55.826;37.046;2023-06-04T07:24:00;17.19;42.30
70321;DHT22;61127;55.826;37.046;2023-06-04T07:26:26;17.17;44.48
70321;DHT22;61127;55.826;37.046;2023-06-04T07:28:56;17.13;43.54
70321;DHT22;61127;55.826;37.046;2023-06-04T07:31:23;17.04;42.66
70321;DHT22;61127;55.826;37.046;2023-06-04T07:33:49;16.76;43.99
70321;DHT22;61127;55.826;37.046;2023-06-04T07:36:15;16.52;40.58
70321;DHT22;61127;55.826;37.046;2023-06-04T07:38:42;16.31;45.06
70321;DHT22;61127;55.826;37.046;2023-06-04T07:41:09;16.28;45.17
70321;DHT22;61127;55.826;37.046;2023-06-04T07:43:36;16.19;44.54
70321;DHT22;61127;55.826;37.046;2023-06-04T07:46:03;16.31;44.14
70321;DHT22;61127;55.826;37.046;2023-06-04T07:48:29;16.51;39.80
70321;DHT22;61127;55.826;37.046;2023-06-04T07:50:59;16.92;43.89
70321;DHT22;61127;55.826;37.046;2023-06-04T07:53:26;16.70;39.75
70321;DHT22;61127;55.826;37.046;2023-06-04T07:55:53;16.51;41.90
70321;DHT22;61127;55.826;37.046;2023-06-04T07:58:19;16.42;42.46
70321;DHT22;61127;55.826;37.046;2023-06-04T08:00:45;16.51;44.67
70321;DHT22;61127;55.826;37.046;2023-06-04T08:03:12;16.50;42.45
70321;DHT22;61127;55.826;37.046;2023-06-04T08:05:37;16.65;43.72
70321;DHT22;61127;55.826;37.046;2023-06-04T08:08:04;16.79;42.25
70321;DHT22;61127;55.826;37.046;2023-06-04T08:10:30;17.22;44.48
70321;DHT22;61127;55.826;37.046;2023-06-04T08:12:56;18.79;41.33
70321;DHT22;61127;55.826;37.046;2023-06-04T08:15:23;19.45;35.01
70321;DHT22;61127;55.826;37.046;2023-06-04T08:18:09;19.27;39.35
70321;DHT22;61127;55.826;37.046;2023-06-04T08:20:40;19.06;31.90
70321;DHT22;61127;55.826;37.046;2023-06-04T08:23:24;18.61;36.02
70321;DHT22;61127;55.826;37.046;2023-06-04T08:26:09;18.42;33.57
70321;DHT22;61127;55.826;37.046;2023-06-04T08:28:56;18.33;36.85
70321;DHT22;61127;55.826;37.046;2023-06-04T08:31:24;18.05;34.79
70321;DHT22;61127;55.826;37.046;2023-06-04T08:34:06;17.70;39.21
70321;DHT22;61127;55.826;37.046;2023-06-04T08:36:47;17.31;35.73
70321;DHT22;61127;55.826;37.046;2023-06-04T08:39:13;16.74;39.61
70321;DHT22;61127;55.826;37.046;2023-06-04T08:41:51;16.52;40.52
70321;DHT22;61127;55.826;37.046;2023-06-04T08:44:18;16.40;41.84
70321;DHT22;61127;55.826;37.046;2023-06-04T08:46:44;16.20;40.49
70321;DHT22;61127;55.826;37.046;2023-06-04T08:49:12;16.14;38.91
70321;DHT22;61127;55.826;37.046;2023-06-04T08:51:39;16.24;42.13
70321;DHT22;61127;55.826;37.046;2023-06-04T08:54:07;16.54;40.23
70321;DHT22;61127;55.826;37.046;2023-06-04T08:56:34;16.81;42.15
70321;DHT22;61127;55.826;37.046;2023-06-04T08:59:06;17.98;43.18
70321;DHT22;61127;55.826;37.046;2023-06-04T09:01:34;18.71;39.06
70321;DHT22;61127;55.826;37.046;2023-06-04T09:04:06;18.89;35.83
70321;DHT22;61127;55.826;37.046;2023-06-04T09:06:33;19.25;39.41
70321;DHT22;61127;55.826;37.046;2023-06-04T09:09:02;19.51;41.44
70321;DHT22;61127;55.826;37.046;2023-06-04T09:11:36;19.51;40.75
70321;DHT22;61127;55.826;37.046;2023-06-04T09:14:08;19.41;40.81
70321;DHT22;61127;55.826;37.046;2023-06-04T09:16:51;19.32;37.91
70321;DHT22;61127;55.826;37.046;2023-06-04T09:19:18;19.35;39.66
70321;DHT22;61127;55.826;37.046;2023-06-04T09:21:52;19.24;40.22
70321;DHT22;61127;55.826;37.046;2023-06-04T09:24:19;19.21;38.94
70321;DHT22;61127;55.826;37.046;2023-06-04T09:26:46;18.91;36.99
70321;DHT22;61127;55.826;37.046;2023-06-04T09:29:12;18.59;37.19
70321;DHT22;61127;55.826;37.046;2023-06-04T09:31:39;18.17;37.58
70321;DHT22;61127;55.826;37.046;2023-06-04T09:34:06;17.93;35.48
70321;DHT22;61127;55.826;37.046;2023-06-04T09:36:33;17.74;37.14
70321;DHT22;61127;55.826;37.046;2023-06-04T09:39:02;17.83;39.27
70321;DHT22;61127;55.826;37.046;2023-06-04T09:41:29;18.71;38.83
70321;DHT22;61127;55.826;37.046;2023-06-04T09:44:00;19.81;34.66
70321;DHT22;61127;55.826;37.046;2023-06-04T09:46:28;21.19;29.18
70321;DHT22;61127;55.826;37.046;2023-06-04T09:49:02;22.98;31.45
70321;DHT22;61127;55.826;37.046;2023-06-04T09:51:29;24.50;29.85
70321;DHT22;61127;55.826;37.046;2023-06-04T09:54:02;26.32;29.42
70321;DHT22;61127;55.826;37.046;2023-06-04T09:56:29;0.00;0.00
70321;DHT22;61127;55.826;37.046;2023-06-04T09:59:00;0.00;26.26
70321;DHT22;61127;55.826;37.046;2023-06-04T10:01:30;27.65;23.28
70321;DHT22;61127;55.826;37.046;2023-06-04T10:03:58;26.56;22.00
70321;DHT22;61127;55.826;37.046;2023-06-04T10:06:33;25.93;30.06
70321;DHT22;61127;55.826;37.046;2023-06-04T10:09:04;26.89;27.71
70321;DHT22;61127;55.826;37.046;2023-06-04T10:11:35;25.95;19.30
70321;DHT22;61127;55.826;37.046;2023-06-04T10:14:14;24.66;20.93
70321;DHT22;61127;55.826;37.046;2023-06-04T10:16:43;23.90;28.48
70321;DHT22;61127;55.826;37.046;2023-06-04T10:19:10;23.91;29.37
70321;DHT22;61127;55.826;37.046;2023-06-04T10:21:37;24.72;25.90
70321;DHT22;61127;55.826;37.046;2023-06-04T10:24:03;25.86;28.38
70321;DHT22;61127;55.826;37.046;2023-06-04T10:26:30;27.63;27.94
70321;DHT22;61127;55.826;37.046;2023-06-04T10:29:00;29.87;25.04
70321;DHT22;61127;55.826;37.046;2023-06-04T10:31:26;31.92;24.70
70321;DHT22;61127;55.826;37.046;2023-06-04T10:33:56;33.21;20.57
70321;DHT22;61127;55.826;37.046;2023-06-04T10:36:23;33.01;19.70
70321;DHT22;61127;55.826;37.046;2023-06-04T10:38:51;33.80;12.81
70321;DHT22;61127;55.826;37.046;2023-06-04T10:41:19;32.99;13.47
70321;DHT22;61127;55.826;37.046;2023-06-04T10:43:48;30.53;16.71
70321;DHT22;61127;55.826;37.046;2023-06-04T10:46:19;28.00;14.32
70321;DHT22;61127;55.826;37.046;2023-06-04T10:48:46;26.06;17.93
70321;DHT22;61127;55.826;37.046;2023-06-04T10:51:13;24.75;22.90
70321;DHT22;61127;55.826;37.046;2023-06-04T10:53:38;23.71;22.11
70321;DHT22;61127;55.826;37.046;2023-06-04T10:56:05;22.90;24.86
70321;DHT22;61127;55.826;37.046;2023-06-04T10:58:35;22.41;25.65
70321;DHT22;61127;55.826;37.046;2023-06-04T11:01:01;22.05;24.96
70321;DHT22;61127;55.826;37.046;2023-06-04T11:03:37;21.79;25.36
70321;DHT22;61127;55.826;37.046;2023-06-04T11:06:15;21.38;28.22
70321;DHT22;61127;55.826;37.046;2023-06-04T11:08:42;21.32;28.78
70321;DHT22;61127;55.826;37.046;2023-06-04T11:11:12;23.53;27.26
70321;DHT22;61127;55.826;37.046;2023-06-04T11:13:42;23.21;24.08
70321;DHT22;61127;55.826;37.046;2023-06-04T11:16:19;22.80;27.71
70321;DHT22;61127;55.826;37.046;2023-06-04T11:18:56;22.29;27.02
70321;DHT22;61127;55.826;37.046;2023-06-04T11:21:23;21.77;28.81
70321;DHT22;61127;55.826;37.046;2023-06-04T11:23:55;21.33;29.44
70321;DHT22;61127;55.826;37.046;2023-06-04T11:26:21;20.89;29.16
70321;DHT22;61127;55.826;37.046;2023-06-04T11:28:51;20.29;27.11
70321;DHT22;61127;55.826;37.046;2023-06-04T11:31:18;19.69;29.22
70321;DHT22;61127;55.826;37.046;2023-06-04T11:33:44;19.39;29.77
70321;DHT22;61127;55.826;37.046;2023-06-04T11:36:25;19.08;31.48
70321;DHT22;61127;55.826;37.046;2023-06-04T11:39:01;18.95;29.71
70321;DHT22;61127;55.826;37.046;2023-06-04T11:41:29;18.76;30.93
70321;DHT22;61127;55.826;37.046;2023-06-04T11:43:56;18.76;29.87
70321;DHT22;61127;55.826;37.046;2023-06-04T11:46:23;18.96;31.19
70321;DHT22;61127;55.826;37.046;2023-06-04T11:48:53;19.56;30.71
70321;DHT22;61127;55.826;37.046;2023-06-04T11:51:20;20.07;29.17
70321;DHT22;61127;55.826;37.046;2023-06-04T11:53:47;20.06;28.74
70321;DHT22;61127;55.826;37.046;2023-06-04T11:56:14;19.71;26.42
70321;DHT22;61127;55.826;37.046;2023-06-04T11:58:40;19.23;28.30
70321;DHT22;61127;55.826;37.046;2023-06-04T12:01:07;19.06;30.47
70321;DHT22;61127;55.826;37.046;2023-06-04T12:03:39;19.10;31.59
70321;DHT22;61127;55.826;37.046;2023-06-04T12:06:19;19.07;30.74
70321;DHT22;61127;55.826;37.046;2023-06-04T12:11:26;18.78;30.03
70321;DHT22;61127;55.826;37.046;2023-06-04T12:13:58;18.85;28.92
70321;DHT22;61127;55.826;37.046;2023-06-04T12:16:24;19.11;29.01
70321;DHT22;61127;55.826;37.046;2023-06-04T12:18:50;21.04;30.22
70321;DHT22;61127;55.826;37.046;2023-06-04T12:21:24;25.09;23.03
70321;DHT22;61127;55.826;37.046;2023-06-04T12:24:13;29.04;15.80
70321;DHT22;61127;55.826;37.046;2023-06-04T12:26:41;30.82;13.66
70321;DHT22;61127;55.826;37.046;2023-06-04T12:29:15;32.25;15.57
70321;DHT22;61127;55.826;37.046;2023-06-04T12:31:42;31.26;18.71
70321;DHT22;61127;55.826;37.046;2023-06-04T12:34:09;30.46;16.77
70321;DHT22;61127;55.826;37.046;2023-06-04T12:36:36;28.93;13.25
70321;DHT22;61127;55.826;37.046;2023-06-04T12:39:03;26.54;15.65
70321;DHT22;61127;55.826;37.046;2023-06-04T12:41:31;24.91;18.21
70321;DHT22;61127;55.826;37.046;2023-06-04T12:44:00;24.31;20.66
70321;DHT22;61127;55.826;37.046;2023-06-04T12:46:26;26.49;19.56
70321;DHT22;61127;55.826;37.046;2023-06-04T12:48:53;26.26;18.65
70321;DHT22;61127;55.826;37.046;2023-06-04T12:51:20;25.21;22.24
70321;DHT22;61127;55.826;37.046;2023-06-04T12:53:47;24.93;23.01
70321;DHT22;61127;55.826;37.046;2023-06-04T12:56:13;24.57;23.21
70321;DHT22;61127;55.826;37.046;2023-06-04T12:58:40;23.82;21.21
70321;DHT22;61127;55.826;37.046;2023-06-04T13:01:06;25.27;24.28
70321;DHT22;61127;55.826;37.046;2023-06-04T13:03:34;28.17;19.24
70321;DHT22;61127;55.826;37.046;2023-06-04T13:06:01;26.34;18.16
70321;DHT22;61127;55.826;37.046;2023-06-04T13:08:28;27.15;21.08
70321;DHT22;61127;55.826;37.046;2023-06-04T13:10:53;28.79;19.47
70321;DHT22;61127;55.826;37.046;2023-06-04T13:13:20;27.00;21.21
70321;DHT22;61127;55.826;37.046;2023-06-04T13:15:46;25.73;22.28
70321;DHT22;61127;55.826;37.046;2023-06-04T13:18:12;24.74;20.04
70321;DHT22;61127;55.826;37.046;2023-06-04T13:20:40;23.51;21.76
70321;DHT22;61127;55.826;37.046;2023-06-04T13:23:06;22.70;21.85
70321;DHT22;61127;55.826;37.046;2023-06-04T13:25:33;21.85;21.80
70321;DHT22;61127;55.826;37.046;2023-06-04T13:28:00;21.50;24.94
70321;DHT22;61127;55.826;37.046;2023-06-04T13:30:26;21.51;26.61
70321;DHT22;61127;55.826;37.046;2023-06-04T13:32:52;21.69;25.04
70321;DHT22;61127;55.826;37.046;2023-06-04T13:35:19;21.47;27.56
70321;DHT22;61127;55.826;37.046;2023-06-04T13:37:45;21.13;27.81
70321;DHT22;61127;55.826;37.046;2023-06-04T13:40:12;20.79;27.87
70321;DHT22;61127;55.826;37.046;2023-06-04T13:42:38;20.51;26.69
70321;DHT22;61127;55.826;37.046;2023-06-04T13:45:04;20.29;27.88
70321;DHT22;61127;55.826;37.046;2023-06-04T13:47:31;20.04;28.10
70321;DHT22;61127;55.826;37.046;2023-06-04T13:49:58;19.99;27.53
70321;DHT22;61127;55.826;37.046;2023-06-04T13:52:25;20.30;29.22
70321;DHT22;61127;55.826;37.046;2023-06-04T13:54:51;20.61;28.34
70321;DHT22;61127;55.826;37.046;2023-06-04T13:57:17;20.62;27.82
70321;DHT22;61127;55.826;37.046;2023-06-04T13:59:43;20.54;27.93
70321;DHT22;61127;55.826;37.046;2023-06-04T14:02:09;20.43;28.62
70321;DHT22;61127;55.826;37.046;2023-06-04T14:04:35;20.31;26.92
70321;DHT22;61127;55.826;37.046;2023-06-04T14:07:01;20.24;27.05
70321;DHT22;61127;55.826;37.046;2023-06-04T14:09:27;19.99;27.05
70321;DHT22;61127;55.826;37.046;2023-06-04T14:11:53;20.02;28.63
70321;DHT22;61127;55.826;37.046;2023-06-04T14:14:20;19.68;28.86
70321;DHT22;61127;55.826;37.046;2023-06-04T14:16:47;19.20;28.91
70321;DHT22;61127;55.826;37.046;2023-06-04T14:19:14;18.65;28.78
70321;DHT22;61127;55.826;37.046;2023-06-04T14:21:44;18.38;30.35
70321;DHT22;61127;55.826;37.046;2023-06-04T14:24:10;18.28;31.61
70321;DHT22;61127;55.826;37.046;2023-06-04T14:26:37;18.19;32.40
70321;DHT22;61127;55.826;37.046;2023-06-04T14:29:03;18.10;32.03
70321;DHT22;61127;55.826;37.046;2023-06-04T14:31:29;18.00;32.93
70321;DHT22;61127;55.826;37.046;2023-06-04T14:33:55;17.76;31.67
70321;DHT22;61127;55.826;37.046;2023-06-04T14:36:21;17.68;32.81
70321;DHT22;61127;55.826;37.046;2023-06-04T14:38:47;17.69;33.94
70321;DHT22;61127;55.826;37.046;2023-06-04T14:41:16;17.56;31.06
70321;DHT22;61127;55.826;37.046;2023-06-04T14:43:43;17.49;33.97
70321;DHT22;61127;55.826;37.046;2023-06-04T14:46:08;17.46;34.10
70321;DHT22;61127;55.826;37.046;2023-06-04T14:48:35;17.46;34.15
70321;DHT22;61127;55.826;37.046;2023-06-04T14:51:01;17.33;32.96
70321;DHT22;61127;55.826;37.046;2023-06-04T14:53:27;17.18;33.05
70321;DHT22;61127;55.826;37.046;2023-06-04T14:55:53;17.06;33.47
70321;DHT22;61127;55.826;37.046;2023-06-04T14:58:19;16.94;32.94
70321;DHT22;61127;55.826;37.046;2023-06-04T15:00:45;16.85;34.15
70321;DHT22;61127;55.826;37.046;2023-06-04T15:03:11;16.77;34.29
70321;DHT22;61127;55.826;37.046;2023-06-04T15:05:37;16.67;33.49
70321;DHT22;61127;55.826;37.046;2023-06-04T15:08:04;16.62;34.19
70321;DHT22;61127;55.826;37.046;2023-06-04T15:10:30;16.55;33.93
70321;DHT22;61127;55.826;37.046;2023-06-04T15:12:59;16.54;34.51
70321;DHT22;61127;55.826;37.046;2023-06-04T15:15:26;16.55;34.66
70321;DHT22;61127;55.826;37.046;2023-06-04T15:17:52;16.58;35.16
70321;DHT22;61127;55.826;37.046;2023-06-04T15:20:18;16.60;34.63
70321;DHT22;61127;55.826;37.046;2023-06-04T15:22:44;16.59;35.15
70321;DHT22;61127;55.826;37.046;2023-06-04T15:25:10;16.58;35.57
70321;DHT22;61127;55.826;37.046;2023-06-04T15:27:36;16.58;36.14
70321;DHT22;61127;55.826;37.046;2023-06-04T15:30:04;16.51;35.24
70321;DHT22;61127;55.826;37.046;2023-06-04T15:32:31;16.44;34.99